Time;durP1;ratioP1;P1;durP2;ratioP2;P2;SDS_P1;SDS_P2;PMS_P1;PMS_P2;Temp;Humidity;BMP_temperature;BMP_pressure;BME280_temperature;BME280_humidity;BME280_pressure;Samples;Min_cycle;Max_cycle;Signal;HPM_P1;HPM_P2
2022/09/21 00:00:13;;;;;;;5.93;3.87;;;7.50;99.90;;;;;;5072160;28;20208;-64
2022/09/21 00:02:39;;;;;;;6.20;4.20;;;7.50;99.90;;;;;;5072017;28;20221;-64
2022/09/21 00:05:07;;;;;;;5.00;3.80;;;7.40;99.90;;;;;;5071693;28;20201;-64
2022/09/21 00:07:34;;;;;;;4.83;3.33;;;7.10;99.90;;;;;;5072395;28;20789;-65
2022/09/21 00:10:02;;;;;;;5.07;3.33;;;7.30;99.90;;;;;;5072687;28;20287;-65
2022/09/21 00:12:28;;;;;;;5.03;3.73;;;7.20;99.90;;;;;;5072341;28;20197;-63
2022/09/21 00:14:55;;;;;;;5.77;4.07;;;7.20;99.90;;;;;;5071372;28;20212;-63
2022/09/21 00:17:22;;;;;;;5.90;3.50;;;7.20;99.90;;;;;;5071347;28;20205;-63
2022/09/21 00:19:48;;;;;;;4.37;3.50;;;7.20;99.90;;;;;;5071841;28;20208;-63
2022/09/21 00:22:15;;;;;;;6.80;3.60;;;7.00;99.90;;;;;;5072026;28;20211;-64
2022/09/21 00:24:42;;;;;;;5.50;3.53;;;6.80;99.90;;;;;;5071323;28;20673;-64
2022/09/21 00:27:10;;;;;;;6.97;3.50;;;6.80;99.90;;;;;;5071868;28;20581;-64
2022/09/21 00:29:36;;;;;;;6.93;4.00;;;6.90;99.90;;;;;;5071912;28;20349;-64
2022/09/21 00:32:03;;;;;;;8.10;3.83;;;6.90;99.90;;;;;;5071849;28;20204;-64
2022/09/21 00:34:31;;;;;;;8.23;3.60;;;6.90;99.90;;;;;;5070900;28;20213;-63
2022/09/21 00:36:57;;;;;;;6.30;3.57;;;6.80;99.90;;;;;;5071731;28;20600;-64
2022/09/21 00:39:24;;;;;;;6.10;3.87;;;6.70;99.90;;;;;;5071975;28;20224;-64
2022/09/21 00:41:52;;;;;;;6.70;3.70;;;6.80;99.90;;;;;;5071908;28;20251;-63
2022/09/21 00:44:35;;;;;;;7.03;3.73;;;6.70;99.90;;;;;;5071679;28;20598;-63
2022/09/21 00:47:07;;;;;;;5.60;3.93;;;6.70;99.90;;;;;;5068479;28;20612;-65
2022/09/21 00:49:35;;;;;;;8.03;3.93;;;6.80;99.90;;;;;;5071856;28;20626;-64
2022/09/21 00:52:04;;;;;;;11.23;3.47;;;6.70;99.90;;;;;;5071724;28;20216;-65
2022/09/21 00:54:35;;;;;;;7.60;3.40;;;6.70;99.90;;;;;;5071046;28;20201;-65
2022/09/21 00:57:03;;;;;;;7.67;3.60;;;6.60;99.90;;;;;;5071477;28;20204;-63
2022/09/21 00:59:31;;;;;;;6.20;3.37;;;6.50;99.90;;;;;;5071186;28;20724;-64
2022/09/21 01:01:59;;;;;;;4.67;3.40;;;6.50;99.90;;;;;;5071697;28;20262;-64
2022/09/21 01:04:28;;;;;;;5.30;3.17;;;6.40;99.90;;;;;;5070909;28;20225;-64
2022/09/21 01:06:55;;;;;;;9.47;3.60;;;6.50;99.90;;;;;;5071548;28;20278;-62
2022/09/21 01:09:22;;;;;;;4.00;3.30;;;6.50;99.90;;;;;;5071330;28;20229;-64
2022/09/21 01:12:00;;;;;;;7.23;4.20;;;6.60;99.90;;;;;;5071410;28;20211;-63
2022/09/21 01:14:43;;;;;;;10.37;4.03;;;6.60;99.90;;;;;;5070896;28;20201;-63
2022/09/21 01:17:18;;;;;;;4.17;3.67;;;6.60;99.90;;;;;;5071490;28;20213;-65
2022/09/21 01:20:24;;;;;;;5.03;3.90;;;6.60;99.90;;;;;;5071415;28;20208;-65
2022/09/21 01:23:04;;;;;;;5.43;3.43;;;6.60;99.90;;;;;;5063238;28;20252;-63
2022/09/21 01:25:42;;;;;;;6.50;3.63;;;6.60;99.90;;;;;;5071193;28;20537;-63
2022/09/21 01:28:21;;;;;;;6.30;4.00;;;6.60;99.90;;;;;;5071539;28;20232;-64
2022/09/21 01:30:52;;;;;;;4.03;3.57;;;6.50;99.90;;;;;;5074768;28;20212;-64
2022/09/21 01:33:24;;;;;;;4.73;3.60;;;6.50;99.90;;;;;;5074913;28;20664;-64
2022/09/21 01:35:56;;;;;;;6.80;3.83;;;6.50;99.90;;;;;;5074315;28;20211;-64
2022/09/21 01:38:26;;;;;;;6.27;3.93;;;6.50;99.90;;;;;;5074685;28;20316;-64
2022/09/21 01:40:59;;;;;;;5.50;3.60;;;6.60;99.90;;;;;;5074934;28;20209;-66
2022/09/21 01:43:32;;;;;;;6.30;3.60;;;6.60;99.90;;;;;;5075403;28;20229;-65
2022/09/21 01:46:02;;;;;;;6.00;3.80;;;6.70;99.90;;;;;;5074746;28;20676;-64
2022/09/21 01:48:34;;;;;;;6.80;3.83;;;6.70;99.90;;;;;;5074995;28;20224;-64
2022/09/21 01:51:05;;;;;;;6.37;3.43;;;6.70;99.90;;;;;;5075382;28;20213;-63
2022/09/21 01:53:34;;;;;;;6.07;3.57;;;6.70;99.90;;;;;;5075235;28;20211;-62
2022/09/21 01:56:07;;;;;;;6.03;4.40;;;6.70;99.90;;;;;;5075266;28;20212;-63
2022/09/21 01:58:39;;;;;;;5.90;3.23;;;6.70;99.90;;;;;;5075925;28;20644;-63
2022/09/21 02:01:11;;;;;;;4.87;3.53;;;6.60;99.90;;;;;;5076332;28;20201;-65
2022/09/21 02:03:41;;;;;;;9.07;3.90;;;6.50;99.90;;;;;;5074648;28;20229;-65
2022/09/21 02:06:09;;;;;;;6.10;3.40;;;6.50;99.90;;;;;;5074121;28;20232;-64
2022/09/21 02:08:37;;;;;;;4.07;3.17;;;6.40;99.90;;;;;;5074566;28;20232;-64
2022/09/21 02:11:05;;;;;;;5.97;3.93;;;6.40;99.90;;;;;;5074516;28;20274;-64
2022/09/21 02:13:36;;;;;;;4.47;3.40;;;6.30;99.90;;;;;;5074541;28;20563;-64
2022/09/21 02:16:28;;;;;;;7.47;3.50;;;6.30;99.90;;;;;;5073640;28;20205;-63
2022/09/21 02:19:09;;;;;;;5.67;3.80;;;6.30;99.90;;;;;;5073726;28;20236;-64
2022/09/21 02:21:44;;;;;;;5.87;3.70;;;6.40;99.90;;;;;;5074058;28;20240;-63
2022/09/21 02:24:20;;;;;;;6.00;3.70;;;6.30;99.90;;;;;;5073909;28;20298;-63
2022/09/21 02:26:53;;;;;;;7.63;4.50;;;6.30;99.90;;;;;;5073257;28;20270;-64
2022/09/21 02:29:25;;;;;;;8.10;4.77;;;6.30;99.90;;;;;;5073825;28;20228;-63
2022/09/21 02:31:59;;;;;;;11.23;5.00;;;6.30;99.90;;;;;;5073734;28;20216;-64
2022/09/21 02:34:32;;;;;;;12.43;6.00;;;6.30;99.90;;;;;;5073550;28;20208;-64
2022/09/21 02:37:08;;;;;;;10.23;4.93;;;6.30;99.90;;;;;;5073441;28;20613;-65
2022/09/21 02:39:42;;;;;;;6.90;4.90;;;6.30;99.90;;;;;;5073195;28;20204;-65
2022/09/21 02:42:13;;;;;;;9.57;4.07;;;6.30;99.90;;;;;;5073357;28;20205;-65
2022/09/21 02:44:44;;;;;;;6.80;5.20;;;6.30;99.90;;;;;;5072958;28;20260;-63
2022/09/21 02:47:16;;;;;;;6.33;4.03;;;6.30;99.90;;;;;;5074294;28;20213;-63
2022/09/21 02:49:50;;;;;;;8.07;4.27;;;6.40;99.90;;;;;;5074294;28;20201;-64
2022/09/21 02:52:17;;;;;;;8.30;4.50;;;6.30;99.90;;;;;;5074438;28;20300;-64
2022/09/21 02:54:48;;;;;;;8.50;4.53;;;6.30;99.90;;;;;;5073167;28;20229;-64
2022/09/21 02:57:16;;;;;;;6.47;3.87;;;6.30;99.90;;;;;;5073216;28;20201;-64
2022/09/21 02:59:44;;;;;;;7.53;4.37;;;6.20;99.90;;;;;;5073444;28;20213;-64
2022/09/21 03:02:11;;;;;;;6.47;4.10;;;6.20;99.90;;;;;;5072896;28;20205;-64
2022/09/21 03:04:40;;;;;;;5.67;3.80;;;6.20;99.90;;;;;;5072446;28;20233;-63
2022/09/21 03:07:07;;;;;;;4.70;4.00;;;6.20;99.90;;;;;;5072881;28;20296;-64
2022/09/21 03:09:33;;;;;;;6.53;4.10;;;6.30;99.90;;;;;;5072783;28;20733;-64
2022/09/21 03:12:00;;;;;;;5.47;3.87;;;6.20;99.90;;;;;;5072832;28;20266;-64
2022/09/21 03:14:27;;;;;;;213.13;158.73;;;6.20;99.90;;;;;;5072777;28;20560;-64
2022/09/21 03:16:54;;;;;;;25.37;15.63;;;6.20;99.90;;;;;;5071927;28;20216;-63
2022/09/21 03:19:20;;;;;;;30.87;19.80;;;6.20;99.90;;;;;;5072493;28;20320;-63
2022/09/21 03:21:48;;;;;;;7.30;4.97;;;6.20;99.90;;;;;;5072623;28;20204;-63
2022/09/21 03:24:44;;;;;;;5.73;3.90;;;6.20;99.90;;;;;;5072670;28;20232;-64
2022/09/21 03:27:02;;;;;;;6.20;4.10;;;6.30;99.90;;;;;;5071963;28;20201;-64
2022/09/21 03:29:28;;;;;;;6.83;4.53;;;6.20;99.90;;;;;;5072434;28;20221;-64
2022/09/21 03:31:55;;;;;;;5.93;4.40;;;6.20;99.90;;;;;;5072408;28;20565;-65
2022/09/21 03:34:22;;;;;;;8.30;4.83;;;6.30;99.90;;;;;;5072193;28;20680;-65
2022/09/21 03:36:50;;;;;;;8.97;4.23;;;6.20;99.90;;;;;;5071886;28;20208;-64
2022/09/21 03:39:17;;;;;;;5.00;3.93;;;6.20;99.90;;;;;;5072385;28;20235;-65
2022/09/21 03:41:44;;;;;;;5.43;4.27;;;6.20;99.90;;;;;;5072644;28;20224;-64
2022/09/21 03:44:10;;;;;;;6.77;4.70;;;6.20;99.90;;;;;;5072051;28;20225;-63
2022/09/21 03:46:37;;;;;;;5.63;4.60;;;6.20;99.90;;;;;;5071792;28;20258;-64
2022/09/21 03:49:04;;;;;;;9.00;6.13;;;6.10;99.90;;;;;;5072193;28;20225;-64
2022/09/21 03:51:30;;;;;;;9.37;3.97;;;6.10;99.90;;;;;;5071459;28;20216;-64
2022/09/21 03:53:58;;;;;;;5.00;4.20;;;6.90;99.90;;;;;;5072164;28;20201;-64
2022/09/21 03:56:25;;;;;;;6.70;4.70;;;6.10;99.90;;;;;;5071315;28;20577;-64
2022/09/21 03:58:52;;;;;;;6.30;4.53;;;6.10;99.90;;;;;;5071889;28;20233;-64
2022/09/21 04:01:18;;;;;;;8.80;4.63;;;6.10;99.90;;;;;;5072001;28;20208;-64
2022/09/21 04:03:45;;;;;;;5.27;4.07;;;6.10;99.90;;;;;;5072099;28;20224;-63
2022/09/21 04:06:13;;;;;;;7.40;4.00;;;6.10;99.90;;;;;;5071373;28;20201;-65
2022/09/21 04:08:40;;;;;;;5.43;3.77;;;6.00;99.90;;;;;;5071778;28;20229;-63
2022/09/21 04:11:11;;;;;;;5.60;3.70;;;5.90;99.90;;;;;;5071798;28;20208;-64
2022/09/21 04:13:37;;;;;;;6.77;3.43;;;5.90;99.90;;;;;;5072200;28;20220;-64
2022/09/21 04:16:04;;;;;;;5.80;4.03;;;5.90;99.90;;;;;;5071697;28;20205;-64
2022/09/21 04:18:31;;;;;;;4.77;3.73;;;5.80;99.90;;;;;;5071800;28;20237;-63
2022/09/21 04:20:58;;;;;;;5.80;3.50;;;5.80;99.90;;;;;;5071900;28;20711;-64
2022/09/21 04:23:25;;;;;;;5.73;4.03;;;5.70;99.90;;;;;;5072148;28;20334;-64
2022/09/21 04:25:53;;;;;;;5.63;4.17;;;5.60;99.90;;;;;;5071469;28;20219;-63
2022/09/21 04:28:22;;;;;;;7.40;4.20;;;5.60;99.90;;;;;;5071892;28;20221;-65
2022/09/21 04:30:53;;;;;;;6.07;3.77;;;5.60;99.90;;;;;;5071835;28;20205;-64
2022/09/21 04:33:20;;;;;;;7.57;4.00;;;5.60;99.90;;;;;;5071849;28;20212;-63
2022/09/21 04:35:47;;;;;;;6.43;4.17;;;5.70;99.90;;;;;;5071403;28;20295;-63
2022/09/21 04:38:14;;;;;;;7.20;4.10;;;5.70;99.90;;;;;;5071549;28;20730;-64
2022/09/21 04:40:41;;;;;;;7.77;5.50;;;5.80;99.90;;;;;;5072066;28;20205;-65
2022/09/21 04:43:07;;;;;;;6.13;4.27;;;5.80;99.90;;;;;;5071772;28;20205;-63
2022/09/21 04:45:35;;;;;;;6.63;5.40;;;5.80;99.90;;;;;;5071185;28;20701;-64
2022/09/21 04:48:02;;;;;;;7.73;4.97;;;5.80;99.90;;;;;;5071582;28;20782;-64
2022/09/21 04:50:29;;;;;;;11.83;4.57;;;5.80;99.90;;;;;;5071694;28;20205;-64
2022/09/21 04:52:57;;;;;;;5.87;4.40;;;5.80;99.90;;;;;;5072187;28;20201;-64
2022/09/21 04:55:23;;;;;;;6.80;4.87;;;5.80;99.90;;;;;;5071793;28;20197;-64
2022/09/21 04:57:50;;;;;;;6.83;5.00;;;5.80;99.90;;;;;;5071857;28;20224;-65
2022/09/21 05:00:18;;;;;;;5.47;4.33;;;5.80;99.90;;;;;;5071908;28;20205;-64
2022/09/21 05:02:46;;;;;;;6.53;4.20;;;5.80;99.90;;;;;;5072269;28;20254;-64
2022/09/21 05:05:13;;;;;;;7.20;4.27;;;5.80;99.90;;;;;;5074877;28;20733;-64
2022/09/21 05:07:39;;;;;;;6.00;4.63;;;5.80;99.90;;;;;;5075619;28;20224;-64
2022/09/21 05:10:07;;;;;;;5.77;4.20;;;5.90;99.90;;;;;;5075657;28;20212;-63
2022/09/21 05:12:35;;;;;;;7.10;4.80;;;5.90;99.90;;;;;;5075455;28;20232;-64
2022/09/21 05:15:02;;;;;;;7.40;4.80;;;5.90;99.90;;;;;;5074811;28;20205;-64
2022/09/21 05:19:58;;;;;;;8.10;4.70;;;6.00;99.90;;;;;;5041438;28;20249;-60
2022/09/21 05:22:25;;;;;;;8.73;5.23;;;6.00;99.90;;;;;;5054833;28;20205;-58
2022/09/21 05:24:51;;;;;;;7.33;4.47;;;6.00;99.90;;;;;;5053999;28;20230;-59
2022/09/21 05:27:18;;;;;;;10.70;5.20;;;6.00;99.90;;;;;;5054461;28;20218;-59
2022/09/21 05:29:45;;;;;;;6.83;4.83;;;6.00;99.90;;;;;;5054452;28;20864;-58
2022/09/21 05:32:18;;;;;;;6.80;4.33;;;6.00;99.90;;;;;;5054558;28;20689;-59
2022/09/21 05:34:56;;;;;;;12.93;4.87;;;6.10;99.90;;;;;;5054806;28;20205;-59
2022/09/21 05:37:48;;;;;;;9.60;4.20;;;6.10;99.90;;;;;;5054487;28;20206;-58
2022/09/21 05:40:16;;;;;;;10.13;5.33;;;6.10;99.90;;;;;;5054223;28;20212;-59
2022/09/21 05:42:43;;;;;;;6.33;4.83;;;6.10;99.90;;;;;;5054141;28;20279;-59
2022/09/21 05:45:14;;;;;;;7.00;4.73;;;6.20;99.90;;;;;;5053985;28;20597;-59
2022/09/21 05:47:58;;;;;;;6.80;4.57;;;6.20;99.90;;;;;;5054405;28;20216;-58
2022/09/21 05:50:42;;;;;;;7.40;5.00;;;6.30;99.90;;;;;;5054205;28;20283;-59
2022/09/21 05:53:25;;;;;;;9.03;4.90;;;6.40;99.90;;;;;;5054271;28;20546;-59
2022/09/21 05:55:56;;;;;;;7.07;4.77;;;6.50;99.90;;;;;;5053542;28;20259;-57
2022/09/21 05:58:32;;;;;;;6.83;4.57;;;6.50;99.90;;;;;;5053950;28;20225;-59
2022/09/21 06:01:13;;;;;;;6.77;4.80;;;6.60;99.90;;;;;;5053783;28;20621;-59
2022/09/21 06:03:42;;;;;;;5.17;4.57;;;6.60;99.90;;;;;;5053843;28;20213;-58
2022/09/21 06:06:09;;;;;;;6.37;4.40;;;6.60;99.90;;;;;;5053199;28;20236;-59
2022/09/21 06:08:37;;;;;;;5.83;4.60;;;6.70;99.90;;;;;;5053838;28;20276;-58
2022/09/21 06:11:04;;;;;;;6.83;4.40;;;6.80;99.90;;;;;;5053532;28;20213;-58
2022/09/21 06:13:31;;;;;;;4.90;4.00;;;7.40;99.90;;;;;;5053749;28;20214;-64
2022/09/21 06:15:57;;;;;;;5.13;3.60;;;8.70;99.90;;;;;;5052247;28;20217;-61
2022/09/21 06:18:24;;;;;;;4.47;3.43;;;10.20;99.90;;;;;;5053718;28;20241;-60
2022/09/21 06:20:51;;;;;;;4.63;3.37;;;11.80;99.90;;;;;;5053584;28;20673;-61
2022/09/21 06:23:17;;;;;;;3.23;2.93;;;13.10;99.90;;;;;;5053435;28;20283;-61
2022/09/21 06:25:51;;;;;;;4.10;3.23;;;14.20;99.90;;;;;;5052680;28;20248;-61
2022/09/21 06:28:17;;;;;;;3.77;2.83;;;15.30;99.90;;;;;;5053382;28;20713;-61
2022/09/21 06:30:50;;;;;;;8.73;3.20;;;16.30;99.90;;;;;;5053339;28;20701;-62
2022/09/21 06:33:19;;;;;;;3.65;2.70;;;17.30;99.90;;;;;;5053491;28;20209;-62
2022/09/21 06:35:52;;;;;;;4.50;2.65;;;18.00;99.90;;;;;;5052700;28;20681;-62
2022/09/21 06:38:18;;;;;;;4.25;3.05;;;18.90;99.90;;;;;;5053114;28;20650;-61
2022/09/21 06:40:47;;;;;;;7.35;2.53;;;19.70;99.90;;;;;;5053209;28;20263;-62
2022/09/21 06:43:13;;;;;;;4.10;2.45;;;20.50;99.90;;;;;;5053137;28;20255;-62
2022/09/21 06:45:40;;;;;;;6.47;3.00;;;21.30;98.60;;;;;;5052641;28;20576;-60
2022/09/21 06:48:07;;;;;;;5.10;2.35;;;22.00;95.20;;;;;;5053304;28;20225;-59
2022/09/21 06:50:33;;;;;;;5.32;2.33;;;22.70;93.50;;;;;;5053165;28;20275;-61
2022/09/21 06:53:01;;;;;;;7.03;2.63;;;23.20;91.70;;;;;;5053065;28;20212;-61
2022/09/21 06:55:28;;;;;;;7.03;3.08;;;23.80;90.30;;;;;;5052211;28;20201;-61
2022/09/21 06:58:01;;;;;;;6.50;2.60;;;24.20;87.00;;;;;;5052963;28;20607;-62
2022/09/21 07:00:28;;;;;;;7.72;3.03;;;24.50;86.10;;;;;;5053038;28;20350;-59
2022/09/21 07:02:55;;;;;;;5.00;2.65;;;24.60;82.80;;;;;;5053073;28;20236;-60
2022/09/21 07:05:21;;;;;;;4.60;3.13;;;24.90;82.20;;;;;;5052051;28;20225;-59
2022/09/21 07:07:48;;;;;;;6.43;3.30;;;25.10;79.90;;;;;;5052549;28;20224;-60
2022/09/21 07:10:15;;;;;;;5.43;3.35;;;25.10;78.60;;;;;;5052676;28;20235;-60
2022/09/21 07:12:42;;;;;;;5.13;3.17;;;25.40;78.50;;;;;;5052851;28;20263;-60
2022/09/21 07:15:11;;;;;;;5.18;3.05;;;25.80;76.30;;;;;;5052117;28;20245;-60
2022/09/21 07:17:39;;;;;;;5.05;3.00;;;26.20;75.40;;;;;;5052404;28;20211;-59
2022/09/21 07:20:07;;;;;;;4.35;2.72;;;26.30;71.80;;;;;;5052330;28;20209;-63
2022/09/21 07:22:34;;;;;;;4.03;2.80;;;26.00;73.50;;;;;;5052462;28;20673;-65
2022/09/21 07:25:01;;;;;;;5.63;3.30;;;26.00;73.00;;;;;;5051997;28;20221;-63
2022/09/21 07:27:29;;;;;;;5.20;2.80;;;26.10;71.90;;;;;;5051648;28;20209;-63
2022/09/21 07:29:56;;;;;;;3.45;2.80;;;26.40;70.70;;;;;;5052353;28;20206;-63
2022/09/21 07:32:24;;;;;;;3.75;2.72;;;26.90;70.10;;;;;;5052260;28;20224;-61
2022/09/21 07:34:55;;;;;;;5.03;2.83;;;27.10;68.20;;;;;;5052735;28;20250;-61
2022/09/21 07:37:23;;;;;;;5.43;2.58;;;27.20;69.10;;;;;;5051625;28;20248;-61
2022/09/21 07:39:50;;;;;;;3.22;2.65;;;27.40;68.00;;;;;;5052329;28;20221;-61
2022/09/21 07:42:19;;;;;;;4.35;2.65;;;27.40;66.10;;;;;;5052206;28;20206;-61
2022/09/21 07:44:45;;;;;;;5.68;3.13;;;27.30;66.40;;;;;;5051884;28;20216;-61
2022/09/21 07:47:12;;;;;;;4.50;2.95;;;26.60;67.50;;;;;;5051424;28;20212;-60
2022/09/21 07:49:41;;;;;;;4.20;2.90;;;25.20;71.10;;;;;;5051803;28;20237;-61
2022/09/21 07:52:08;;;;;;;4.93;2.90;;;23.90;73.80;;;;;;5052216;28;20209;-63
2022/09/21 07:54:35;;;;;;;7.18;3.00;;;22.40;77.20;;;;;;5052035;28;20256;-61
2022/09/21 07:59:47;;;;;;;7.65;3.05;;;18.80;88.90;;;;;;5051958;28;20224;-61
2022/09/21 08:02:14;;;;;;;5.18;2.80;;;17.10;93.40;;;;;;5052205;28;20205;-62
2022/09/21 08:04:42;;;;;;;6.53;3.35;;;16.10;96.70;;;;;;5052005;28;20219;-60
2022/09/21 08:07:08;;;;;;;4.13;2.83;;;15.50;99.60;;;;;;5051193;28;20267;-64
2022/09/21 08:09:35;;;;;;;5.22;2.72;;;15.00;99.90;;;;;;5051507;28;20779;-61
2022/09/21 08:12:02;;;;;;;8.55;3.05;;;14.80;99.90;;;;;;5052096;28;20209;-61
2022/09/21 08:14:29;;;;;;;6.73;3.07;;;14.70;99.90;;;;;;5051777;28;20228;-61
2022/09/21 08:16:55;;;;;;;5.40;2.80;;;14.50;99.90;;;;;;5050863;28;20201;-61
2022/09/21 08:19:24;;;;;;;3.70;2.60;;;14.30;99.90;;;;;;5051593;28;20248;-61
2022/09/21 08:21:52;;;;;;;6.27;3.13;;;14.10;99.90;;;;;;5051824;28;20554;-60
2022/09/21 08:24:19;;;;;;;2.93;2.40;;;13.90;99.90;;;;;;5051772;28;20586;-61
2022/09/21 08:26:47;;;;;;;4.37;2.97;;;14.00;99.90;;;;;;5050987;28;20260;-61
2022/09/21 08:29:14;;;;;;;5.23;3.67;;;14.10;99.90;;;;;;5051823;28;20233;-61
2022/09/21 08:31:41;;;;;;;10.03;6.10;;;14.10;99.90;;;;;;5051417;28;20202;-63
2022/09/21 08:34:07;;;;;;;5.90;3.60;;;14.20;99.90;;;;;;5051612;28;20243;-61
2022/09/21 08:36:34;;;;;;;7.73;3.10;;;14.20;99.90;;;;;;5050888;28;20304;-61
2022/09/21 08:39:02;;;;;;;3.93;2.50;;;14.20;99.90;;;;;;5054104;28;20629;-61
2022/09/21 08:41:46;;;;;;;4.47;2.57;;;14.20;99.90;;;;;;5055688;28;20206;-63
2022/09/21 08:44:17;;;;;;;6.37;2.90;;;14.10;99.90;;;;;;5055412;28;20754;-61
2022/09/21 08:46:46;;;;;;;6.10;2.70;;;14.10;99.90;;;;;;5054872;28;20259;-61
2022/09/21 08:49:16;;;;;;;5.10;2.60;;;14.00;99.90;;;;;;5055463;28;20229;-61
2022/09/21 08:51:48;;;;;;;5.53;2.90;;;14.00;99.90;;;;;;5055590;28;20267;-61
2022/09/21 08:54:21;;;;;;;5.50;2.60;;;14.10;99.90;;;;;;5055153;28;20201;-61
2022/09/21 08:56:47;;;;;;;4.33;2.30;;;14.10;99.90;;;;;;5055206;28;20213;-61
2022/09/21 08:59:15;;;;;;;6.93;2.73;;;14.20;99.90;;;;;;5055394;28;20237;-61
2022/09/21 09:01:54;;;;;;;4.83;2.20;;;14.30;99.90;;;;;;5055494;28;20664;-61
2022/09/21 09:04:45;;;;;;;3.60;2.50;;;14.50;99.90;;;;;;5055729;28;20205;-64
2022/09/21 09:07:27;;;;;;;5.67;2.73;;;14.60;99.90;;;;;;5055205;28;20225;-62
2022/09/21 09:10:18;;;;;;;2.90;2.10;;;14.60;99.90;;;;;;5055636;28;20267;-60
2022/09/21 09:12:57;;;;;;;2.93;2.00;;;14.60;99.90;;;;;;5055444;28;20209;-64
2022/09/21 09:15:34;;;;;;;3.63;2.20;;;14.70;99.90;;;;;;5055203;28;20220;-61
2022/09/21 09:18:09;;;;;;;3.37;2.10;;;15.10;99.90;;;;;;5055595;28;20236;-61
2022/09/21 09:20:39;;;;;;;3.10;1.90;;;15.60;99.90;;;;;;5055186;28;20220;-62
2022/09/21 09:23:10;;;;;;;3.93;2.10;;;16.10;99.90;;;;;;5055460;28;20209;-62
2022/09/21 09:25:41;;;;;;;3.33;2.07;;;16.50;99.90;;;;;;5054500;28;20226;-61
2022/09/21 09:28:21;;;;;;;2.63;1.80;;;16.70;99.90;;;;;;5055447;28;20232;-61
2022/09/21 09:30:56;;;;;;;3.97;1.90;;;16.90;99.90;;;;;;5055155;28;20209;-61
2022/09/21 09:33:26;;;;;;;2.22;1.55;;;17.20;99.90;;;;;;5055112;28;20259;-61
2022/09/21 09:35:59;;;;;;;4.20;1.80;;;17.40;99.90;;;;;;5054610;28;20288;-61
2022/09/21 09:38:32;;;;;;;2.63;1.60;;;17.60;99.90;;;;;;5055342;28;20720;-61
2022/09/21 09:41:33;;;;;;;2.97;1.00;;;17.70;99.90;;;;;;5049163;28;20555;-61
2022/09/21 09:44:16;;;;;;;2.60;0.90;;;17.80;99.90;;;;;;5043482;28;20263;-68
2022/09/21 09:46:54;;;;;;;2.87;0.80;;;17.80;99.90;;;;;;5032683;28;20230;-62
2022/09/21 09:49:33;;;;;;;3.50;0.80;;;18.20;99.90;;;;;;5032615;28;20601;-60
2022/09/21 09:52:00;;;;;;;1.02;0.70;;;18.30;99.90;;;;;;5032509;28;20250;-61
2022/09/21 09:54:29;;;;;;;1.63;0.90;;;18.20;99.90;;;;;;5033474;28;20206;-61
2022/09/21 09:56:58;;;;;;;2.25;0.70;;;17.80;99.90;;;;;;5032623;28;20670;-60
2022/09/21 09:59:31;;;;;;;2.90;1.10;;;17.50;99.90;;;;;;5033339;28;20237;-59
2022/09/21 10:02:04;;;;;;;2.08;0.85;;;17.50;99.90;;;;;;5033221;28;20700;-59
2022/09/21 10:04:32;;;;;;;1.63;0.82;;;17.80;99.90;;;;;;5033071;28;20633;-59
2022/09/21 10:06:59;;;;;;;2.42;0.93;;;18.20;99.90;;;;;;5032438;28;20317;-59
2022/09/21 10:09:28;;;;;;;1.63;0.90;;;18.40;99.90;;;;;;5032997;28;20230;-60
2022/09/21 10:12:00;;;;;;;1.52;0.77;;;18.80;99.90;;;;;;5032936;28;20678;-60
2022/09/21 10:14:31;;;;;;;2.03;0.60;;;19.00;99.80;;;;;;5032781;28;20620;-59
2022/09/21 10:17:03;;;;;;;1.30;0.47;;;19.20;97.90;;;;;;5032043;28;20289;-61
2022/09/21 10:19:31;;;;;;;1.15;0.50;;;19.20;97.10;;;;;;5032518;28;20240;-59
2022/09/21 10:21:59;;;;;;;1.27;0.57;;;19.10;96.40;;;;;;5032384;28;20633;-59
2022/09/21 10:24:28;;;;;;;1.63;0.38;;;19.20;95.90;;;;;;5032811;28;20218;-59
2022/09/21 10:27:05;;;;;;;1.08;0.57;;;19.20;95.70;;;;;;5031769;28;20284;-61
2022/09/21 10:29:39;;;;;;;0.85;0.45;;;19.20;95.60;;;;;;5032585;28;20279;-62
2022/09/21 10:32:19;;;;;;;2.50;0.75;;;19.40;95.40;;;;;;5032492;28;20205;-61
2022/09/21 10:35:02;;;;;;;1.25;0.73;;;19.50;95.00;;;;;;5032813;28;20534;-62
2022/09/21 10:37:32;;;;;;;2.08;0.60;;;19.40;95.40;;;;;;5031792;28;20301;-63
2022/09/21 10:39:59;;;;;;;2.13;0.65;;;19.40;95.60;;;;;;5033148;28;20211;-62
2022/09/21 10:42:31;;;;;;;1.40;0.60;;;19.40;94.50;;;;;;5032820;28;20209;-61
2022/09/21 10:45:06;;;;;;;1.58;0.65;;;19.40;94.60;;;;;;5033308;28;20228;-61
2022/09/21 10:47:36;;;;;;;1.42;0.50;;;19.30;94.40;;;;;;5031771;28;20600;-61
2022/09/21 10:50:06;;;;;;;1.23;0.35;;;19.00;94.40;;;;;;5032875;28;20511;-61
2022/09/21 10:52:35;;;;;;;1.30;0.60;;;18.80;95.10;;;;;;5032124;28;20214;-64
2022/09/21 10:55:02;;;;;;;2.05;0.80;;;18.70;95.30;;;;;;5033207;28;20210;-63
2022/09/21 10:57:32;;;;;;;1.75;0.60;;;18.60;95.00;;;;;;5032181;28;20297;-62
2022/09/21 11:00:28;;;;;;;0.75;0.60;;;18.70;94.90;;;;;;5032293;28;20238;-63
2022/09/21 11:02:55;;;;;;;1.80;0.50;;;18.60;95.30;;;;;;5031904;28;20237;-62
2022/09/21 11:05:26;;;;;;;1.15;0.60;;;18.30;94.70;;;;;;5031923;28;20236;-62
2022/09/21 11:08:02;;;;;;;1.35;0.55;;;18.20;94.90;;;;;;5031835;28;20230;-64
2022/09/21 11:10:34;;;;;;;1.20;0.50;;;18.20;95.10;;;;;;5033697;28;20216;-63
2022/09/21 11:13:17;;;;;;;1.00;0.63;;;18.10;94.60;;;;;;5033950;28;20206;-66
2022/09/21 11:15:49;;;;;;;1.58;0.70;;;18.30;94.80;;;;;;5032848;28;20698;-66
2022/09/21 11:18:21;;;;;;;1.80;0.88;;;18.30;94.90;;;;;;5048427;23;20298;-61
2022/09/21 11:20:52;;;;;;;2.45;0.60;;;18.20;94.50;;;;;;5045583;28;20216;-59
2022/09/21 11:23:37;;;;;;;1.30;0.68;;;18.20;94.80;;;;;;5032116;28;20309;-60
2022/09/21 11:26:11;;;;;;;3.20;0.70;;;18.30;94.70;;;;;;5031487;28;20223;-60
2022/09/21 11:28:49;;;;;;;2.25;1.00;;;18.60;93.90;;;;;;5032226;28;20234;-60
2022/09/21 11:31:39;;;;;;;1.10;0.68;;;18.60;94.10;;;;;;5032235;28;20206;-67
2022/09/21 11:34:25;;;;;;;1.05;0.77;;;18.60;93.90;;;;;;5012485;28;20210;-63
2022/09/21 11:36:58;;;;;;;1.83;0.98;;;18.30;94.20;;;;;;5033811;28;20198;-61
2022/09/21 11:39:45;;;;;;;1.50;0.80;;;18.00;94.80;;;;;;5033495;28;20236;-63
2022/09/21 11:42:23;;;;;;;2.25;0.80;;;18.00;94.40;;;;;;5032569;28;20214;-62
2022/09/21 11:44:57;;;;;;;3.17;0.70;;;18.00;94.70;;;;;;5032849;28;20689;-62
2022/09/21 11:47:50;;;;;;;1.65;1.00;;;18.20;93.70;;;;;;5031511;28;20570;-64
2022/09/21 11:50:31;;;;;;;2.40;1.00;;;18.60;93.20;;;;;;5032658;28;20210;-62
2022/09/21 11:53:19;;;;;;;1.00;0.70;;;19.00;92.30;;;;;;5032594;28;20223;-63
2022/09/21 11:56:03;;;;;;;2.33;1.10;;;19.20;91.90;;;;;;5032535;28;20210;-65
2022/09/21 11:58:37;;;;;;;1.67;0.88;;;19.10;91.80;;;;;;5033118;28;20313;-65
2022/09/21 12:01:17;;;;;;;1.38;0.75;;;18.90;91.30;;;;;;5033055;28;20234;-63
2022/09/21 12:04:10;;;;;;;1.35;0.57;;;18.60;91.70;;;;;;5032658;28;20210;-61
2022/09/21 12:06:49;;;;;;;1.33;0.70;;;18.30;91.60;;;;;;5032845;28;20319;-64
2022/09/21 12:09:40;;;;;;;1.17;0.73;;;18.20;91.40;;;;;;5032862;28;20230;-65
2022/09/21 12:12:13;;;;;;;1.08;0.60;;;18.00;91.10;;;;;;5031734;28;20273;-63
2022/09/21 12:14:49;;;;;;;1.20;0.65;;;18.20;91.60;;;;;;5032808;28;20213;-61
2022/09/21 12:17:23;;;;;;;0.82;0.60;;;18.20;91.10;;;;;;5031933;28;20210;-65
2022/09/21 12:19:58;;;;;;;0.85;0.70;;;18.20;90.90;;;;;;5031777;28;20253;-62
2022/09/21 12:22:28;;;;;;;0.88;0.68;;;18.10;91.50;;;;;;5031029;28;20206;-62
2022/09/21 12:25:01;;;;;;;1.42;0.70;;;18.10;91.40;;;;;;5032111;28;20213;-62
2022/09/21 12:27:32;;;;;;;1.45;0.80;;;18.10;91.00;;;;;;5031261;28;20748;-60
2022/09/21 12:30:03;;;;;;;2.00;0.50;;;18.20;90.80;;;;;;5031786;28;20599;-62
2022/09/21 12:32:48;;;;;;;1.88;0.57;;;18.50;90.70;;;;;;5030836;28;20193;-62
2022/09/21 12:35:19;;;;;;;0.73;0.50;;;18.90;88.40;;;;;;5031127;28;20753;-61
2022/09/21 12:37:51;;;;;;;1.58;0.50;;;19.30;88.80;;;;;;5031696;28;20209;-61
2022/09/21 12:40:26;;;;;;;2.17;0.60;;;19.60;83.80;;;;;;5031599;28;20283;-61
2022/09/21 12:42:59;;;;;;;0.75;0.50;;;19.50;83.80;;;;;;5031317;28;20201;-62
2022/09/21 12:45:29;;;;;;;3.65;0.80;;;19.20;86.40;;;;;;5030897;28;20667;-62
2022/09/21 12:48:06;;;;;;;1.73;0.70;;;18.80;87.80;;;;;;5030411;28;20225;-59
2022/09/21 12:50:39;;;;;;;1.85;0.80;;;18.50;88.70;;;;;;5031197;28;20213;-61
2022/09/21 12:53:08;;;;;;;2.00;0.77;;;18.00;89.30;;;;;;5031724;28;20203;-60
2022/09/21 12:55:44;;;;;;;1.90;0.45;;;17.80;89.70;;;;;;5031827;28;20548;-60
2022/09/21 12:58:23;;;;;;;1.15;0.70;;;17.70;90.40;;;;;;5031897;28;20722;-61
2022/09/21 13:00:59;;;;;;;1.00;0.47;;;17.60;90.60;;;;;;5031781;28;20202;-61
2022/09/21 13:03:32;;;;;;;1.27;0.60;;;17.50;90.20;;;;;;5030806;28;20206;-60
2022/09/21 13:06:33;;;;;;;2.17;0.70;;;17.50;90.50;;;;;;5030735;28;20234;-61
2022/09/21 13:09:02;;;;;;;1.65;0.50;;;17.70;89.10;;;;;;5026891;28;20255;-61
2022/09/21 13:11:32;;;;;;;1.50;0.68;;;17.90;86.60;;;;;;5030811;28;20588;-61
2022/09/21 13:14:02;;;;;;;2.33;0.73;;;18.30;85.40;;;;;;5031002;28;20206;-60
2022/09/21 13:16:31;;;;;;;1.08;0.80;;;18.80;85.30;;;;;;5030082;28;20210;-60